Time;durP1;ratioP1;P1;durP2;ratioP2;P2;SDS_P1;SDS_P2;PMS_P1;PMS_P2;Temp;Humidity;BMP_temperature;BMP_pressure;BME280_temperature;BME280_humidity;BME280_pressure;Samples;Min_cycle;Max_cycle;Signal;HPM_P1;HPM_P2
2024/03/28 00:01:17;;;;;;;0.50;0.50;;;;;;;5.05;100.00;100595.95;106406;1256;74599;-82
2024/03/28 00:03:45;;;;;;;2.60;2.40;;;;;;;5.01;100.00;100592.95;105997;1254;66507;-78
2024/03/28 00:06:13;;;;;;;1.20;0.90;;;;;;;4.99;100.00;100592.06;106020;1254;72652;-77
2024/03/28 00:08:42;;;;;;;0.20;0.20;;;;;;;5.03;100.00;100595.16;106661;1256;61352;-77
2024/03/28 00:11:10;;;;;;;0.30;0.30;;;;;;;5.03;100.00;100595.21;106141;1253;61391;-78
2024/03/28 00:13:37;;;;;;;2.80;2.60;;;;;;;5.03;100.00;100590.82;106178;1253;73398;-77
2024/03/28 00:16:05;;;;;;;3.20;3.00;;;;;;;4.98;100.00;100589.20;106127;1257;67420;-77
2024/03/28 00:18:33;;;;;;;0.40;0.40;;;;;;;4.97;100.00;100581.98;106080;1254;71635;-82
2024/03/28 00:21:04;;;;;;;3.20;3.00;;;;;;;4.95;100.00;100581.23;106081;1254;61458;-82
2024/03/28 00:23:32;;;;;;;4.60;1.50;;;;;;;4.93;100.00;100582.55;106080;1256;61157;-78
2024/03/28 00:25:59;;;;;;;2.70;2.50;;;;;;;4.91;100.00;100579.95;106212;1253;74668;-82
2024/03/28 00:28:27;;;;;;;1.40;1.30;;;;;;;4.90;100.00;100580.32;106045;1256;67271;-78
2024/03/28 00:30:55;;;;;;;0.10;0.10;;;;;;;4.90;100.00;100577.45;105898;1253;71532;-82
2024/03/28 00:33:22;;;;;;;1.80;1.70;;;;;;;4.85;100.00;100582.39;105987;1254;61378;-78
2024/03/28 00:35:50;;;;;;;2.80;2.60;;;;;;;4.76;100.00;100581.16;105941;1256;61963;-78
2024/03/28 00:38:18;;;;;;;0.60;0.60;;;;;;;4.68;100.00;100582.06;106006;1254;74618;-82
2024/03/28 00:40:50;;;;;;;1.20;1.20;;;;;;;4.63;100.00;100586.55;105956;1254;68693;-81
2024/03/28 00:43:18;;;;;;;;;;;;;;;4.58;100.00;100584.93;106070;1254;72633;-82
2024/03/28 00:45:46;;;;;;;4.40;2.30;;;;;;;4.57;100.00;100585.23;105936;1256;61250;-82
2024/03/28 00:48:17;;;;;;;1.10;0.60;;;;;;;4.54;100.00;100585.30;106092;1254;61148;-77
2024/03/28 00:50:59;;;;;;;1.70;1.40;;;;;;;4.51;100.00;100580.13;105943;1254;74661;-78
2024/03/28 00:53:27;;;;;;;5.10;4.70;;;;;;;4.53;100.00;100580.55;105959;1256;67081;-78
2024/03/28 00:55:55;;;;;;;15.90;6.80;;;;;;;4.48;100.00;100576.25;105910;1256;72097;-81
2024/03/28 00:58:26;;;;;;;0.00;0.00;;;;;;;4.42;100.00;100576.08;106024;1254;61323;-78
2024/03/28 01:00:54;;;;;;;0.90;0.90;;;;;;;4.39;100.00;100568.09;105852;1257;61335;-81
2024/03/28 01:03:21;;;;;;;1.60;1.50;;;;;;;4.36;100.00;100561.42;106042;1253;73356;-81
2024/03/28 01:05:57;;;;;;;9.50;6.90;;;;;;;4.33;100.00;100565.64;106162;1257;68395;-82
2024/03/28 01:08:25;;;;;;;24.40;6.00;;;;;;;4.27;100.00;100559.75;105999;1253;72716;-78
2024/03/28 01:10:52;;;;;;;0.50;0.50;;;;;;;4.21;100.00;100556.23;105900;1254;61331;-81
2024/03/28 01:13:20;;;;;;;3.60;3.40;;;;;;;4.16;100.00;100560.44;106143;1254;59840;-82
2024/03/28 01:15:47;;;;;;;0.60;0.60;;;;;;;4.17;100.00;100563.09;105980;1253;74625;-81
2024/03/28 01:18:15;;;;;;;0.90;0.90;;;;;;;4.21;100.00;100557.73;105890;1254;67626;-82
2024/03/28 01:20:43;;;;;;;0.10;0.10;;;;;;;4.18;100.00;100554.73;106165;1254;71460;-82
2024/03/28 01:23:10;;;;;;;0.50;0.50;;;;;;;4.19;100.00;100553.69;106140;1254;61397;-82
2024/03/28 01:25:38;;;;;;;2.20;2.10;;;;;;;4.23;100.00;100555.41;106433;1257;61321;-78
2024/03/28 01:28:06;;;;;;;1.30;1.30;;;;;;;4.20;100.00;100555.05;107535;1253;74616;-78
2024/03/28 01:30:36;;;;;;;0.40;0.40;;;;;;;4.19;100.00;100554.98;107919;1254;231457;-78
2024/03/28 01:33:04;;;;;;;0.40;0.40;;;;;;;4.24;100.00;100557.21;106604;1254;71485;-78
2024/03/28 01:35:31;;;;;;;0.00;0.00;;;;;;;4.19;100.00;100553.19;106573;1254;61265;-82
2024/03/28 01:37:59;;;;;;;1.10;1.10;;;;;;;4.17;100.00;100557.59;106515;1256;61176;-82
2024/03/28 01:40:27;;;;;;;2.00;1.00;;;;;;;4.18;100.00;100556.05;105976;1257;73198;-82
2024/03/28 01:43:07;;;;;;;0.70;0.30;;;;;;;4.19;100.00;100556.02;106141;1255;68420;-82
2024/03/28 01:45:34;;;;;;;2.10;1.60;;;;;;;4.17;100.00;100554.73;106048;1254;70605;-79
2024/03/28 01:48:02;;;;;;;2.60;2.20;;;;;;;4.15;100.00;100550.94;106003;1253;61861;-81
2024/03/28 01:50:30;;;;;;;0.50;0.50;;;;;;;4.15;100.00;100546.44;106086;1254;61362;-78
2024/03/28 01:52:58;;;;;;;5.70;4.00;;;;;;;4.13;100.00;100548.30;106478;1253;72646;-82
2024/03/28 01:55:26;;;;;;;2.90;2.70;;;;;;;4.10;100.00;100548.77;106304;1255;66175;-79
2024/03/28 01:57:53;;;;;;;0.70;0.70;;;;;;;4.16;100.00;100545.39;106379;1256;71433;-78
2024/03/28 02:00:21;;;;;;;0.00;0.00;;;;;;;4.24;100.00;100543.03;106232;1261;61304;-79
2024/03/28 02:02:49;;;;;;;3.30;3.10;;;;;;;4.27;100.00;100543.98;106544;1254;61276;-78
2024/03/28 02:05:17;;;;;;;3.60;3.40;;;;;;;4.33;100.00;100542.96;106307;1259;73784;-79
2024/03/28 02:07:45;;;;;;;1.00;1.00;;;;;;;4.37;100.00;100545.02;106702;1253;68393;-82
2024/03/28 02:10:12;;;;;;;1.80;1.70;;;;;;;4.35;100.00;100540.84;106381;1254;73030;-82
2024/03/28 02:12:40;;;;;;;0.10;0.10;;;;;;;4.36;100.00;100541.63;106428;1253;64990;-78
2024/03/28 02:15:08;;;;;;;0.30;0.30;;;;;;;4.42;100.00;100541.00;106175;1254;61172;-79
2024/03/28 02:17:48;;;;;;;2.20;2.10;;;;;;;4.51;100.00;100540.92;106501;1254;74629;-82
2024/03/28 02:20:17;;;;;;;9.10;6.30;;;;;;;4.52;100.00;100535.86;106333;1254;68387;-82
2024/03/28 02:22:44;;;;;;;2.00;1.90;;;;;;;4.51;100.00;100538.89;106555;1254;72745;-82
2024/03/28 02:25:12;;;;;;;1.10;1.10;;;;;;;4.54;100.00;100535.04;106418;1252;61292;-78
2024/03/28 02:27:40;;;;;;;0.90;0.90;;;;;;;4.55;100.00;100533.11;107580;1254;61173;-81
2024/03/28 02:30:08;;;;;;;7.50;3.80;;;;;;;4.58;100.00;100531.92;106403;1257;74724;-83
2024/03/28 02:32:35;;;;;;;7.50;4.10;;;;;;;4.62;100.00;100524.81;106430;1257;67101;-82
2024/03/28 02:35:05;;;;;;;0.60;0.60;;;;;;;4.64;100.00;100530.98;106211;1254;71490;-82
2024/03/28 02:37:32;;;;;;;22.40;3.40;;;;;;;4.65;100.00;100530.45;106787;1254;61362;-82
2024/03/28 02:40:01;;;;;;;0.40;0.40;;;;;;;4.68;100.00;100533.46;106403;1254;61158;-83
2024/03/28 02:42:29;;;;;;;11.10;3.50;;;;;;;4.67;100.00;100529.91;106516;1254;74662;-78
2024/03/28 02:44:57;;;;;;;8.50;2.80;;;;;;;4.62;100.00;100525.64;106460;1253;67117;-82
2024/03/28 02:47:24;;;;;;;5.00;4.70;;;;;;;4.56;100.00;100525.34;106492;1257;71454;-78
2024/03/28 02:49:52;;;;;;;2.20;2.10;;;;;;;4.54;100.00;100524.97;106418;1254;61343;-83
2024/03/28 02:52:19;;;;;;;0.80;0.80;;;;;;;4.52;100.00;100528.14;106335;1254;61237;-82
2024/03/28 02:54:47;;;;;;;2.60;1.50;;;;;;;4.51;100.00;100523.30;106465;1254;75042;-78
2024/03/28 02:57:25;;;;;;;0.10;0.10;;;;;;;4.51;100.00;100522.42;106503;1254;68858;-79
2024/03/28 02:59:52;;;;;;;6.00;4.10;;;;;;;4.48;100.00;100524.16;106418;1254;71456;-82
2024/03/28 03:02:20;;;;;;;4.10;2.80;;;;;;;4.45;100.00;100523.75;106497;1254;61234;-78
2024/03/28 03:04:48;;;;;;;1.00;1.00;;;;;;;4.47;100.00;100522.17;106516;1254;61215;-78
2024/03/28 03:07:15;;;;;;;1.10;1.10;;;;;;;4.49;100.00;100516.36;106617;1252;74620;-79
2024/03/28 03:09:43;;;;;;;1.30;0.70;;;;;;;4.54;100.00;100513.23;106581;1253;67206;-82
2024/03/28 03:12:11;;;;;;;3.20;3.00;;;;;;;4.59;100.00;100517.45;106504;1252;72635;-78
2024/03/28 03:14:38;;;;;;;4.90;4.60;;;;;;;4.68;100.00;100523.44;106545;1254;61148;-78
2024/03/28 03:17:06;;;;;;;0.60;0.60;;;;;;;4.77;100.00;100527.02;106453;1255;61171;-79
2024/03/28 03:19:33;;;;;;;1.40;1.40;;;;;;;4.92;100.00;100524.63;106435;1252;74620;-82
2024/03/28 03:22:01;;;;;;;4.80;1.40;;;;;;;4.98;100.00;100523.66;106276;1254;67318;-82
2024/03/28 03:24:34;;;;;;;0.90;0.90;;;;;;;5.06;100.00;100528.11;106416;1253;71207;-77
2024/03/28 03:27:04;;;;;;;0.90;0.90;;;;;;;5.20;100.00;100532.98;106062;1253;61477;-83
2024/03/28 03:35:05;;;;;;;0.10;0.10;;;;;;;5.36;100.00;100533.73;106014;1253;66513;-81
2024/03/28 03:37:35;;;;;;;1.10;0.90;;;;;;;5.39;100.00;100532.14;106501;1253;72709;-81
2024/03/28 03:40:05;;;;;;;5.20;3.10;;;;;;;5.45;100.00;100534.27;107101;1255;61339;-78
2024/03/28 03:42:33;;;;;;;0.60;0.60;;;;;;;5.47;100.00;100529.27;105909;1253;61276;-82
2024/03/28 03:45:01;;;;;;;0.20;0.20;;;;;;;5.56;100.00;100515.88;106058;1254;73425;-82
2024/03/28 03:47:28;;;;;;;2.90;2.70;;;;;;;5.63;100.00;100515.81;106023;1260;67217;-82
2024/03/28 03:49:56;;;;;;;4.30;1.90;;;;;;;5.71;100.00;100514.06;105971;1254;72706;-82
2024/03/28 03:52:24;;;;;;;0.50;0.50;;;;;;;5.77;100.00;100519.09;107680;1253;61144;-81
2024/03/28 03:54:52;;;;;;;2.00;1.90;;;;;;;5.78;100.00;100521.23;106607;1254;61359;-82
2024/03/28 03:57:20;;;;;;;0.20;0.20;;;;;;;5.87;100.00;100525.87;106371;1256;74649;-82
2024/03/28 03:59:47;;;;;;;2.60;2.40;;;;;;;5.91;100.00;100526.39;106475;1254;68396;-82
2024/03/28 04:02:15;;;;;;;7.70;5.20;;;;;;;5.89;100.00;100522.60;106532;1254;72469;-79
2024/03/28 04:04:43;;;;;;;2.80;2.20;;;;;;;5.87;100.00;100518.43;106444;1258;61343;-82
2024/03/28 04:07:10;;;;;;;0.00;0.00;;;;;;;5.94;100.00;100514.52;106361;1254;61237;-78
2024/03/28 04:09:38;;;;;;;1.70;1.50;;;;;;;6.04;100.00;100511.79;106425;1259;75152;-79
2024/03/28 04:12:06;;;;;;;1.20;1.00;;;;;;;6.15;100.00;100506.00;106490;1256;66972;-78
2024/03/28 04:14:33;;;;;;;2.90;1.80;;;;;;;6.21;100.00;100505.33;106483;1254;71171;-78
2024/03/28 04:17:05;;;;;;;0.20;0.20;;;;;;;6.30;100.00;100507.52;106336;1254;61345;-78
2024/03/28 04:19:34;;;;;;;2.40;2.30;;;;;;;6.38;100.00;100503.29;106442;1254;60085;-78
2024/03/28 04:22:02;;;;;;;3.70;1.50;;;;;;;6.44;100.00;100506.42;106508;1254;74688;-78
2024/03/28 04:24:29;;;;;;;2.90;2.20;;;;;;;6.41;100.00;100503.27;106456;1253;67446;-82
2024/03/28 04:26:57;;;;;;;0.50;0.50;;;;;;;6.48;100.00;100501.27;106469;1254;70489;-82
2024/03/28 04:29:25;;;;;;;2.30;2.20;;;;;;;6.52;100.00;100498.81;106355;1254;61350;-82
2024/03/28 04:31:53;;;;;;;0.20;0.20;;;;;;;6.59;100.00;100498.24;106509;1253;61348;-82
2024/03/28 04:34:23;;;;;;;0.00;0.00;;;;;;;6.61;100.00;100497.56;106399;1254;73520;-82
2024/03/28 04:36:50;;;;;;;10.70;2.50;;;;;;;6.66;100.00;100496.71;106666;1254;69196;-82
2024/03/28 04:39:18;;;;;;;1.90;1.80;;;;;;;6.70;100.00;100491.76;106500;1254;72977;-78
2024/03/28 04:41:46;;;;;;;1.80;1.70;;;;;;;6.69;100.00;100492.02;106509;1254;61243;-78
2024/03/28 04:44:13;;;;;;;2.10;2.00;;;;;;;6.70;100.00;100485.46;106434;1253;61826;-78
2024/03/28 04:46:41;;;;;;;0.00;0.00;;;;;;;6.74;100.00;100480.84;106504;1253;74113;-78
2024/03/28 04:49:08;;;;;;;0.30;0.30;;;;;;;6.75;100.00;100484.59;106448;1254;68418;-82
2024/03/28 04:51:36;;;;;;;0.00;0.00;;;;;;;6.77;100.00;100482.89;106437;1254;71853;-82
2024/03/28 04:54:04;;;;;;;0.50;0.50;;;;;;;6.84;100.00;100479.54;106364;1253;61346;-82
2024/03/28 04:56:34;;;;;;;0.90;0.90;;;;;;;6.93;100.00;100477.64;106503;1253;61180;-81
2024/03/28 04:59:01;;;;;;;0.10;0.10;;;;;;;6.94;100.00;100475.04;106611;1256;74560;-81
2024/03/28 05:01:30;;;;;;;0.00;0.00;;;;;;;6.97;100.00;100473.55;106466;1254;68380;-82
2024/03/28 05:03:57;;;;;;;1.70;1.60;;;;;;;7.01;100.00;100473.73;106390;1254;72701;-82
2024/03/28 05:06:25;;;;;;;2.70;2.50;;;;;;;6.99;100.00;100469.66;105953;1257;60105;-82
2024/03/28 05:08:52;;;;;;;1.50;1.50;;;;;;;7.10;100.00;100463.91;105921;1253;61360;-82
2024/03/28 05:11:23;;;;;;;2.90;2.70;;;;;;;7.20;100.00;100463.85;107324;1252;73398;-81
2024/03/28 05:13:52;;;;;;;0.30;0.30;;;;;;;7.27;100.00;100460.55;106062;1254;68717;-81
2024/03/28 05:16:19;;;;;;;1.00;1.00;;;;;;;7.35;100.00;100460.80;105985;1258;72659;-81
2024/03/28 05:18:47;;;;;;;0.80;0.80;;;;;;;7.47;100.00;100463.57;106221;1255;61575;-77
2024/03/28 05:21:15;;;;;;;0.10;0.10;;;;;;;7.54;100.00;100458.89;105960;1259;61151;-77
2024/03/28 05:23:43;;;;;;;3.00;2.70;;;;;;;7.62;100.00;100457.60;106046;1255;74762;-81
2024/03/28 05:26:10;;;;;;;5.80;1.40;;;;;;;7.67;100.00;100454.86;106145;1259;66182;-77
2024/03/28 05:28:38;;;;;;;0.40;0.40;;;;;;;7.71;100.00;100455.28;105983;1254;72791;-77
2024/03/28 05:31:18;;;;;;;0.40;0.40;;;;;;;7.76;100.00;100450.75;105948;1254;61337;-81
2024/03/28 05:33:45;;;;;;;0.80;0.80;;;;;;;7.76;100.00;100452.70;105920;1257;61251;-77
2024/03/28 05:36:13;;;;;;;0.10;0.10;;;;;;;7.85;100.00;100443.19;105704;1254;73105;-81
2024/03/28 05:38:41;;;;;;;5.50;4.00;;;;;;;7.91;100.00;100440.73;105981;1253;68328;-81
2024/03/28 05:41:08;;;;;;;0.10;0.10;;;;;;;7.96;100.00;100440.39;106111;1253;72772;-77
2024/03/28 05:43:36;;;;;;;0.20;0.20;;;;;;;8.00;100.00;100440.95;106127;1254;61279;-78
2024/03/28 05:46:03;;;;;;;2.90;1.20;;;;;;;8.01;100.00;100439.81;106024;1254;61372;-77
2024/03/28 05:48:31;;;;;;;0.30;0.30;;;;;;;8.11;100.00;100432.19;106000;1253;72393;-81
2024/03/28 05:50:58;;;;;;;0.30;0.30;;;;;;;8.15;100.00;100431.91;105946;1254;68347;-81
2024/03/28 05:53:26;;;;;;;0.50;0.50;;;;;;;8.21;100.00;100434.48;106150;1254;72657;-81
2024/03/28 05:55:53;;;;;;;1.20;0.90;;;;;;;8.24;100.00;100431.29;105973;1257;61672;-81
2024/03/28 05:58:21;;;;;;;1.40;1.30;;;;;;;8.26;100.00;100433.69;106002;1256;61250;-81
2024/03/28 06:00:49;;;;;;;0.10;0.10;;;;;;;8.26;100.00;100436.20;105866;1259;74615;-78
2024/03/28 06:03:16;;;;;;;0.20;0.20;;;;;;;8.32;100.00;100434.50;106148;1254;67718;-81
2024/03/28 06:05:44;;;;;;;0.40;0.40;;;;;;;8.36;100.00;100428.96;105915;1259;71443;-77
2024/03/28 06:08:12;;;;;;;0.40;0.40;;;;;;;8.38;100.00;100425.17;105912;1258;61973;-77
2024/03/28 06:10:43;;;;;;;0.60;0.60;;;;;;;8.48;100.00;100415.32;105867;1254;61683;-78
2024/03/28 06:13:17;;;;;;;0.20;0.20;;;;;;;8.48;100.00;100418.48;106157;1252;74643;-81
2024/03/28 06:15:45;;;;;;;0.20;0.20;;;;;;;8.49;100.00;100414.56;105868;1254;68311;-77
2024/03/28 06:18:13;;;;;;;3.50;3.20;;;;;;;8.62;100.00;100410.73;106084;1253;71095;-77
2024/03/28 06:20:41;;;;;;;1.20;1.10;;;;;;;8.74;100.00;100407.61;105888;1256;61314;-82
2024/03/28 06:23:09;;;;;;;2.00;1.80;;;;;;;8.83;100.00;100402.46;106032;1254;61543;-81
2024/03/28 06:25:39;;;;;;;1.10;1.10;;;;;;;8.90;100.00;100401.01;106017;1257;74628;-82
2024/03/28 06:28:08;;;;;;;2.20;2.10;;;;;;;9.06;100.00;100401.42;108057;1254;67104;-80
2024/03/28 06:30:40;;;;;;;0.40;0.40;;;;;;;9.16;100.00;100397.67;106036;1254;70730;-77
2024/03/28 06:33:07;;;;;;;0.10;0.10;;;;;;;9.28;100.00;100390.76;105986;1254;61631;-81
2024/03/28 06:35:35;;;;;;;0.20;0.20;;;;;;;9.36;100.00;100392.67;105905;1256;63730;-81
2024/03/28 06:38:03;;;;;;;0.20;0.20;;;;;;;9.40;100.00;100392.99;105947;1254;75384;-81
2024/03/28 06:40:31;;;;;;;0.60;0.60;;;;;;;9.49;100.00;100386.28;106035;1254;67288;-81
2024/03/28 06:42:59;;;;;;;2.60;0.50;;;;;;;9.51;100.00;100384.64;105846;1254;75278;-81
2024/03/28 06:45:27;;;;;;;1.20;1.10;;;;;;;9.54;100.00;100379.30;105911;1254;64025;-81
2024/03/28 06:47:54;;;;;;;0.60;0.60;;;;;;;9.62;100.00;100375.46;105873;1257;61358;-82
2024/03/28 06:50:22;;;;;;;0.70;0.70;;;;;;;9.61;100.00;100378.42;105929;1257;75629;-81
2024/03/28 06:52:52;;;;;;;0.60;0.60;;;;;;;9.64;100.00;100374.77;106995;1254;71090;-77
2024/03/28 06:55:20;;;;;;;0.00;0.00;;;;;;;9.73;100.00;100372.34;106735;1258;73851;-82
2024/03/28 06:57:48;;;;;;;0.30;0.30;;;;;;;9.76;100.00;100373.42;106042;1260;62247;-78
2024/03/28 07:00:15;;;;;;;1.50;1.40;;;;;;;9.84;100.00;100374.45;106372;1257;61445;-77
2024/03/28 07:02:43;;;;;;;0.30;0.30;;;;;;;9.90;100.00;100373.95;106054;1254;73366;-77
2024/03/28 07:05:11;;;;;;;11.20;2.80;;;;;;;10.04;100.00;100372.59;105977;1254;69881;-77
2024/03/28 07:07:39;;;;;;;1.80;1.70;;;;;;;10.16;100.00;100370.42;105989;1256;71375;-77
2024/03/28 07:10:07;;;;;;;2.40;1.10;;;;;;;10.24;100.00;100369.70;106998;1254;62106;-82
2024/03/28 07:12:37;;;;;;;10.90;2.50;;;;;;;10.32;100.00;100364.67;105940;1254;61365;-81
2024/03/28 07:15:08;;;;;;;0.50;0.50;;;;;;;10.40;100.00;100358.45;105982;1259;76626;-82
2024/03/28 07:17:37;;;;;;;0.60;0.60;;;;;;;10.44;100.00;100360.19;106014;1253;71153;-82
2024/03/28 07:20:07;;;;;;;4.00;1.10;;;;;;;10.50;100.00;100356.83;105992;1254;73582;-82
2024/03/28 07:22:35;;;;;;;1.50;1.40;;;;;;;10.52;100.00;100362.39;106044;1253;61298;-82
2024/03/28 07:25:04;;;;;;;0.20;0.20;;;;;;;10.62;100.00;100355.02;105959;1253;61281;-77
2024/03/28 07:27:31;;;;;;;0.00;0.00;;;;;;;10.69;100.00;100349.52;106122;1252;75955;-82
2024/03/28 07:29:59;;;;;;;0.90;0.90;;;;;;;10.78;100.00;100348.13;106125;1256;70608;-77
2024/03/28 07:32:27;;;;;;;1.10;1.00;;;;;;;10.88;100.00;100344.41;106050;1254;72480;-81
2024/03/28 07:34:54;;;;;;;1.00;0.60;;;;;;;11.03;100.00;100339.21;105945;1259;61256;-77
2024/03/28 07:37:22;;;;;;;3.90;2.90;;;;;;;11.17;100.00;100337.62;106110;1254;62324;-77
2024/03/28 07:39:50;;;;;;;0.20;0.20;;;;;;;11.27;100.00;100334.66;106028;1254;75550;-78
2024/03/28 07:42:18;;;;;;;2.90;1.50;;;;;;;11.34;100.00;100329.05;105873;1255;69360;-77
2024/03/28 07:44:49;;;;;;;0.80;0.80;;;;;;;11.39;100.00;100335.48;105950;1254;71444;-81
2024/03/28 07:47:16;;;;;;;0.90;0.90;;;;;;;11.44;100.00;100324.98;105861;1253;61250;-81
2024/03/28 07:49:47;;;;;;;8.30;0.70;;;;;;;11.46;100.00;100321.84;105960;1254;61167;-78
2024/03/28 07:52:14;;;;;;;0.80;0.80;;;;;;;11.59;100.00;100313.73;105830;1254;77627;-77
2024/03/28 07:54:42;;;;;;;3.70;1.00;;;;;;;11.66;100.00;100308.34;106057;1254;70314;-77
2024/03/28 07:57:10;;;;;;;0.70;0.70;;;;;;;11.73;100.00;100307.50;106090;1258;72657;-77
2024/03/28 07:59:38;;;;;;;0.40;0.40;;;;;;;11.85;100.00;100306.98;105998;1253;61289;-81
2024/03/28 08:02:05;;;;;;;0.00;0.00;;;;;;;11.97;100.00;100303.59;106078;1254;61186;-78
2024/03/28 08:04:33;;;;;;;0.00;0.00;;;;;;;12.10;100.00;100297.08;106092;1256;76881;-77
2024/03/28 08:07:00;;;;;;;1.20;1.20;;;;;;;12.23;100.00;100291.33;105961;1256;71511;-81
2024/03/28 08:09:29;;;;;;;6.80;2.10;;;;;;;12.29;100.00;100287.19;106007;1252;74991;-77
2024/03/28 08:11:56;;;;;;;0.10;0.10;;;;;;;12.37;100.00;100280.16;105943;1259;61329;-82
2024/03/28 08:14:24;;;;;;;2.50;1.30;;;;;;;12.47;100.00;100277.90;105871;1259;62279;-81
2024/03/28 08:16:52;;;;;;;6.50;1.50;;;;;;;12.66;100.00;100273.01;105983;1253;74730;-81
2024/03/28 08:19:19;;;;;;;0.50;0.50;;;;;;;12.86;100.00;100266.56;105994;1259;68596;-82
2024/03/28 08:21:47;;;;;;;0.30;0.30;;;;;;;12.96;100.00;100264.14;105935;1256;73726;-78
2024/03/28 08:24:14;;;;;;;0.90;0.90;;;;;;;13.05;100.00;100261.80;106024;1254;62332;-78
2024/03/28 08:26:42;;;;;;;0.10;0.10;;;;;;;13.14;100.00;100258.86;105975;1259;61175;-77
2024/03/28 08:29:10;;;;;;;0.10;0.10;;;;;;;13.28;100.00;100253.35;106108;1254;75826;-77
2024/03/28 08:31:38;;;;;;;0.10;0.10;;;;;;;13.40;100.00;100251.27;105845;1259;71147;-78
2024/03/28 08:34:05;;;;;;;0.10;0.10;;;;;;;13.48;100.00;100246.58;106417;1255;73644;-78
2024/03/28 08:36:33;;;;;;;1.90;0.70;;;;;;;13.62;100.00;100249.47;106031;1254;61459;-77
2024/03/28 08:39:03;;;;;;;0.90;0.90;;;;;;;13.75;100.00;100251.85;106017;1254;61157;-81
2024/03/28 08:41:31;;;;;;;0.60;0.60;;;;;;;13.85;100.00;100252.27;106114;1251;75802;-78
2024/03/28 08:43:59;;;;;;;0.10;0.10;;;;;;;13.83;100.00;100245.92;106046;1254;71437;-77
2024/03/28 08:46:27;;;;;;;0.10;0.10;;;;;;;13.86;100.00;100245.39;105987;1258;74560;-77
2024/03/28 08:48:55;;;;;;;0.10;0.10;;;;;;;13.93;100.00;100240.45;105940;1259;62043;-77
2024/03/28 08:51:24;;;;;;;0.40;0.40;;;;;;;14.04;100.00;100241.30;106015;1254;61267;-82
2024/03/28 08:53:52;;;;;;;1.50;1.40;;;;;;;14.15;100.00;100244.80;105958;1253;76984;-82
2024/03/28 08:56:20;;;;;;;0.10;0.10;;;;;;;14.28;100.00;100248.00;106086;1256;69817;-81
2024/03/28 08:58:48;;;;;;;0.10;0.10;;;;;;;14.42;100.00;100250.75;105993;1254;75030;-78
2024/03/28 09:01:15;;;;;;;2.30;0.70;;;;;;;14.49;100.00;100254.27;106090;1253;61772;-78
2024/03/28 09:03:43;;;;;;;1.80;0.80;;;;;;;14.50;100.00;100258.10;105890;1253;61283;-81
2024/03/28 09:06:11;;;;;;;0.40;0.40;;;;;;;14.53;100.00;100262.02;106149;1256;75583;-78
2024/03/28 09:08:38;;;;;;;3.30;1.10;;;;;;;14.51;100.00;100256.39;106180;1254;68358;-81
2024/03/28 09:11:09;;;;;;;0.10;0.10;;;;;;;14.43;100.00;100256.78;105879;1259;75142;-78
2024/03/28 09:13:37;;;;;;;0.60;0.60;;;;;;;14.40;100.00;100256.14;105869;1254;61461;-77
2024/03/28 09:16:08;;;;;;;5.20;1.10;;;;;;;14.45;100.00;100258.19;105937;1253;62016;-78
2024/03/28 09:18:35;;;;;;;1.10;1.10;;;;;;;14.44;100.00;100259.23;105943;1257;75697;-81
2024/03/28 09:21:08;;;;;;;1.80;0.30;;;;;;;14.47;100.00;100250.59;106117;1256;69096;-77
2024/03/28 09:23:35;;;;;;;0.50;0.50;;;;;;;14.50;100.00;100252.54;106031;1256;74576;-81
2024/03/28 09:26:03;;;;;;;0.20;0.20;;;;;;;14.54;100.00;100248.65;106381;1254;63455;-78
2024/03/28 09:28:31;;;;;;;2.30;1.10;;;;;;;14.57;100.00;100252.65;107562;1253;61168;-81
2024/03/28 09:30:59;;;;;;;0.10;0.10;;;;;;;14.67;100.00;100249.11;108354;1256;74834;-81
2024/03/28 09:33:28;;;;;;;0.30;0.30;;;;;;;14.78;100.00;100234.26;105930;1260;69843;-81
2024/03/28 09:35:56;;;;;;;0.10;0.10;;;;;;;14.92;100.00;100235.52;105994;1254;75018;-81
2024/03/28 09:38:24;;;;;;;1.30;1.10;;;;;;;15.02;100.00;100229.98;107376;1256;62285;-78
2024/03/28 09:40:52;;;;;;;0.20;0.20;;;;;;;15.13;100.00;100231.07;105955;1254;61897;-81
2024/03/28 09:43:20;;;;;;;1.80;1.00;;;;;;;15.28;100.00;100228.04;106125;1258;77015;-79
2024/03/28 09:45:47;;;;;;;0.30;0.20;;;;;;;15.39;100.00;100230.77;105977;1259;69806;-81
2024/03/28 09:48:15;;;;;;;0.50;0.50;;;;;;;15.47;100.00;100224.84;105831;1259;74854;-81
2024/03/28 09:50:43;;;;;;;0.30;0.30;;;;;;;15.57;100.00;100216.73;106084;1260;62616;-78
2024/03/28 09:53:11;;;;;;;0.20;0.20;;;;;;;15.67;100.00;100214.64;106313;1257;61298;-81
2024/03/28 09:55:38;;;;;;;0.20;0.20;;;;;;;15.79;99.37;100209.90;106104;1260;76969;-81
2024/03/28 09:58:06;;;;;;;0.70;0.60;;;;;;;15.84;100.00;100207.48;106178;1257;69760;-79
2024/03/28 10:00:34;;;;;;;0.90;0.90;;;;;;;15.87;100.00;100197.70;105976;1254;75030;-77
2024/03/28 10:03:26;;;;;;;1.00;1.00;;;;;;;15.92;100.00;100194.31;106163;1254;62343;-80
2024/03/28 10:05:54;;;;;;;0.50;0.10;;;;;;;15.99;100.00;100198.56;106046;1254;62689;-80
2024/03/28 10:08:24;;;;;;;1.60;0.90;;;;;;;16.05;100.00;100194.36;105889;1254;75785;-81
2024/03/28 10:10:53;;;;;;;0.10;0.10;;;;;;;16.12;100.00;100188.94;105828;1259;69454;-80
2024/03/28 10:13:37;;;;;;;1.20;0.50;;;;;;;16.14;100.00;100193.36;105848;1259;73841;-77
2024/03/28 10:16:12;;;;;;;0.70;0.70;;;;;;;16.20;100.00;100189.93;106737;1257;61301;-81
2024/03/28 10:18:42;;;;;;;0.10;0.10;;;;;;;16.17;99.41;100180.71;107842;1259;61158;-81
2024/03/28 10:21:12;;;;;;;0.20;0.20;;;;;;;16.10;100.00;100176.89;107794;1254;75755;-78
2024/03/28 10:23:42;;;;;;;0.80;0.80;;;;;;;16.10;100.00;100179.09;107223;1258;69898;-81
2024/03/28 10:26:10;;;;;;;0.50;0.50;;;;;;;16.17;100.00;100183.86;107988;1259;74936;-81
2024/03/28 10:28:41;;;;;;;0.30;0.30;;;;;;;16.25;100.00;100184.16;105959;1261;61335;-79
2024/03/28 10:31:10;;;;;;;0.30;0.30;;;;;;;16.39;99.83;100189.52;105985;1259;62843;-78
2024/03/28 10:33:42;;;;;;;0.90;0.60;;;;;;;16.52;97.25;100184.93;105962;1260;74754;-78
2024/03/28 10:36:09;;;;;;;2.40;1.10;;;;;;;16.53;99.38;100184.41;105774;1260;69221;-78
2024/03/28 10:38:37;;;;;;;14.10;1.20;;;;;;;16.57;95.94;100180.74;105919;1259;73561;-78
2024/03/28 10:41:05;;;;;;;1.00;0.70;;;;;;;16.68;96.75;100181.38;106000;1259;61369;-78
2024/03/28 10:43:32;;;;;;;1.00;0.40;;;;;;;16.75;99.76;100178.95;106074;1261;61362;-78
2024/03/28 10:46:02;;;;;;;1.00;0.40;;;;;;;16.92;97.71;100179.29;105710;1262;76989;-77
2024/03/28 10:48:31;;;;;;;0.70;0.70;;;;;;;17.07;93.89;100179.70;106066;1259;68700;-78
2024/03/28 10:51:00;;;;;;;0.00;0.00;;;;;;;17.24;89.81;100180.42;105969;1258;75066;-78
2024/03/28 10:53:40;;;;;;;0.50;0.50;;;;;;;17.32;83.07;100177.17;105949;1255;61301;-78
2024/03/28 10:56:17;;;;;;;0.80;0.80;;;;;;;17.40;85.08;100176.23;105935;1255;61160;-80
2024/03/28 10:58:46;;;;;;;0.40;0.40;;;;;;;17.51;83.49;100169.12;105957;1259;75346;-80
2024/03/28 11:01:14;;;;;;;0.00;0.00;;;;;;;17.67;88.07;100161.55;105800;1260;70808;-80
2024/03/28 11:03:43;;;;;;;0.30;0.30;;;;;;;17.85;81.31;100162.30;105768;1257;74773;-80
2024/03/28 11:06:11;;;;;;;2.40;0.80;;;;;;;17.86;68.48;100151.74;105981;1258;61272;-78
2024/03/28 11:08:38;;;;;;;0.30;0.30;;;;;;;17.87;69.58;100138.67;105832;1259;61318;-80
2024/03/28 11:11:06;;;;;;;0.10;0.10;;;;;;;17.83;68.69;100128.88;105850;1256;77850;-79
2024/03/28 11:13:34;;;;;;;0.60;0.60;;;;;;;17.78;73.26;100128.50;106434;1253;70719;-81
2024/03/28 11:16:04;;;;;;;0.20;0.20;;;;;;;17.69;72.08;100124.59;106481;1257;72753;-77
2024/03/28 11:18:32;;;;;;;4.10;3.50;;;;;;;17.49;77.79;100115.75;107910;1256;62423;-81
2024/03/28 11:21:00;;;;;;;2.10;0.60;;;;;;;17.39;84.32;100113.06;107979;1258;61340;-81
2024/03/28 11:23:30;;;;;;;2.20;1.50;;;;;;;17.39;82.59;100116.09;107949;1254;76373;-80
2024/03/28 11:26:05;;;;;;;0.30;0.30;;;;;;;17.41;82.14;100111.96;107869;1253;68829;-78